createdAt,value
2019-04-27T00:02:18.126Z,7.50
2019-04-27T00:05:35.323Z,7.50
2019-04-27T00:08:39.206Z,7.50
2019-04-27T00:11:22.995Z,7.60
2019-04-27T00:14:48.326Z,7.60
2019-04-27T00:18:01.497Z,7.60
2019-04-27T00:20:51.088Z,7.60
2019-04-27T00:23:36.917Z,7.70
2019-04-27T00:26:17.862Z,7.70
2019-04-27T00:29:07.480Z,7.80
2019-04-27T00:31:55.769Z,7.80
2019-04-27T00:34:38.421Z,7.70
2019-04-27T00:37:35.974Z,7.60
2019-04-27T00:40:23.485Z,7.50
2019-04-27T00:43:14.752Z,7.50
2019-04-27T00:45:59.105Z,7.50
2019-04-27T00:48:49.762Z,7.40
2019-04-27T00:51:28.551Z,7.40
2019-04-27T00:54:26.005Z,7.40
2019-04-27T00:57:36.378Z,7.40
2019-04-27T01:00:27.051Z,7.40
2019-04-27T01:03:08.550Z,7.40
2019-04-27T01:05:48.015Z,7.40
2019-04-27T01:08:23.823Z,7.40
2019-04-27T01:11:06.950Z,7.40
2019-04-27T01:13:48.138Z,7.40
2019-04-27T01:16:32.763Z,7.40
2019-04-27T01:19:08.450Z,7.40
2019-04-27T01:22:01.020Z,7.40
2019-04-27T01:24:44.018Z,7.50
2019-04-27T01:27:51.427Z,7.50
2019-04-27T01:30:39.868Z,7.50
2019-04-27T01:33:14.279Z,7.50
2019-04-27T01:36:15.903Z,7.50
2019-04-27T01:38:55.730Z,7.50
2019-04-27T01:41:39.952Z,7.40
2019-04-27T01:44:21.045Z,7.40
2019-04-27T01:46:59.894Z,7.50
2019-04-27T01:49:33.464Z,7.50
2019-04-27T01:52:12.222Z,7.50
2019-04-27T01:54:59.892Z,7.50
2019-04-27T01:57:39.487Z,7.60
2019-04-27T02:00:39.628Z,7.60
2019-04-27T02:03:17.492Z,7.60
2019-04-27T02:06:00.305Z,7.60
2019-04-27T02:08:45.519Z,7.60
2019-04-27T02:11:26.607Z,7.60
2019-04-27T02:14:19.626Z,7.60
2019-04-27T02:16:54.105Z,7.70
2019-04-27T02:19:37.106Z,7.60
2019-04-27T02:22:32.676Z,7.70
2019-04-27T02:28:30.864Z,7.70
2019-04-27T02:31:40.384Z,7.70
2019-04-27T02:34:23.401Z,7.80
2019-04-27T02:37:02.561Z,7.80
2019-04-27T02:39:41.601Z,7.90
2019-04-27T02:45:24.462Z,8.00
2019-04-27T02:48:01.083Z,8.00
2019-04-27T02:53:53.900Z,8.10
2019-04-27T02:56:45.134Z,8.10
2019-04-27T02:59:39.827Z,8.10
2019-04-27T03:02:44.789Z,8.10
2019-04-27T03:05:32.420Z,8.10
2019-04-27T03:08:10.216Z,8.10
2019-04-27T03:10:51.658Z,8.10
2019-04-27T03:14:29.834Z,8.10
2019-04-27T03:17:06.086Z,8.20
2019-04-27T03:19:50.027Z,8.20
2019-04-27T03:22:29.626Z,8.20
2019-04-27T03:28:40.276Z,8.20
2019-04-27T03:31:23.886Z,8.10
2019-04-27T03:34:05.583Z,8.10
2019-04-27T03:36:44.694Z,8.10
2019-04-27T03:39:59.949Z,8.10
2019-04-27T03:42:42.882Z,8.00
2019-04-27T03:45:20.232Z,8.00
2019-04-27T03:48:00.384Z,8.00
2019-04-27T03:50:43.100Z,8.00
2019-04-27T03:53:39.647Z,8.00
2019-04-27T03:56:47.416Z,8.00
2019-04-27T04:00:00.037Z,8.00
2019-04-27T04:02:42.729Z,7.90
2019-04-27T04:05:39.674Z,7.90
2019-04-27T04:08:19.295Z,7.90
2019-04-27T04:11:02.350Z,7.80
2019-04-27T04:13:50.102Z,7.90
2019-04-27T04:16:40.723Z,7.90
2019-04-27T04:19:51.131Z,7.90
2019-04-27T04:22:15.147Z,7.90
2019-04-27T04:24:53.733Z,8.00
2019-04-27T04:27:32.330Z,8.00
2019-04-27T04:30:11.800Z,8.00
2019-04-27T04:33:23.938Z,8.00
2019-04-27T04:36:24.423Z,8.00
2019-04-27T04:39:01.506Z,8.10
2019-04-27T04:41:46.804Z,8.10
2019-04-27T04:44:32.271Z,8.10
2019-04-27T04:47:22.884Z,8.10
2019-04-27T04:50:11.356Z,8.10
2019-04-27T04:53:02.094Z,8.20
2019-04-27T04:55:54.160Z,8.20
2019-04-27T04:58:33.663Z,8.30
2019-04-27T05:01:19.522Z,8.30
2019-04-27T05:03:55.082Z,8.40
2019-04-27T05:06:45.337Z,8.40
2019-04-27T05:09:43.092Z,8.40
2019-04-27T05:12:28.672Z,8.40
2019-04-27T05:15:12.366Z,8.40
2019-04-27T05:17:48.405Z,8.50
2019-04-27T05:20:55.964Z,8.50
2019-04-27T05:23:32.006Z,8.50
2019-04-27T05:26:19.398Z,8.60
2019-04-27T05:28:59.253Z,8.70
2019-04-27T05:31:49.104Z,8.70
2019-04-27T05:34:33.696Z,8.80
2019-04-27T05:37:15.099Z,8.90
2019-04-27T05:40:09.115Z,8.90
2019-04-27T05:43:00.301Z,9.00
2019-04-27T05:46:51.023Z,9.00
2019-04-27T05:50:03.830Z,9.00
2019-04-27T05:52:59.674Z,9.00
2019-04-27T05:55:36.455Z,9.00
2019-04-27T05:58:16.206Z,9.00
2019-04-27T06:00:53.172Z,9.00
2019-04-27T06:03:36.494Z,9.00
2019-04-27T06:06:55.633Z,9.00
2019-04-27T06:10:02.262Z,9.00
2019-04-27T06:12:39.567Z,9.00
2019-04-27T06:15:19.833Z,9.00
2019-04-27T06:17:54.809Z,9.00
2019-04-27T06:20:53.454Z,9.00
2019-04-27T06:23:28.974Z,9.00
2019-04-27T06:26:11.731Z,9.10
2019-04-27T06:28:54.326Z,9.10
2019-04-27T06:31:37.216Z,9.10
2019-04-27T06:34:16.558Z,9.10
2019-04-27T06:36:51.105Z,9.20
2019-04-27T06:39:29.793Z,9.20
2019-04-27T06:42:24.337Z,9.20
2019-04-27T06:45:03.830Z,9.20
2019-04-27T06:47:46.538Z,9.30
2019-04-27T06:50:29.559Z,9.30
2019-04-27T06:53:11.471Z,9.30
2019-04-27T06:55:52.751Z,9.40
2019-04-27T06:58:26.932Z,9.50
2019-04-27T07:01:13.275Z,9.50
2019-04-27T07:03:49.269Z,9.70
2019-04-27T07:06:25.584Z,9.80
2019-04-27T07:09:06.006Z,9.80
2019-04-27T07:11:49.342Z,9.90
2019-04-27T07:14:25.820Z,10.00
2019-04-27T07:17:00.373Z,10.00
2019-04-27T07:19:33.638Z,10.10
2019-04-27T07:22:11.479Z,10.10
2019-04-27T07:24:46.416Z,10.10
2019-04-27T07:27:23.276Z,10.20
2019-04-27T07:30:05.551Z,10.10
2019-04-27T07:32:45.587Z,10.20
2019-04-27T07:35:26.778Z,10.30
2019-04-27T07:38:19.088Z,10.30
2019-04-27T07:41:00.597Z,10.40
2019-04-27T07:43:43.694Z,10.40
2019-04-27T07:46:24.720Z,10.40
2019-04-27T07:48:59.503Z,10.40
2019-04-27T07:51:34.691Z,10.40
2019-04-27T07:54:13.184Z,10.40
2019-04-27T07:56:54.094Z,10.40
2019-04-27T07:59:29.871Z,10.40
2019-04-27T08:02:24.660Z,10.40
2019-04-27T08:05:02.475Z,10.50
2019-04-27T08:07:40.721Z,10.60
2019-04-27T08:10:19.360Z,10.60
2019-04-27T08:12:57.162Z,10.60
2019-04-27T08:15:46.403Z,10.70
2019-04-27T08:18:44.833Z,10.80
2019-04-27T08:21:20.114Z,10.80
2019-04-27T08:24:17.051Z,10.80
2019-04-27T08:27:20.473Z,10.90
2019-04-27T08:30:29.312Z,10.90
2019-04-27T08:33:06.931Z,11.00
2019-04-27T08:35:41.706Z,11.00
2019-04-27T08:38:21.745Z,11.10
2019-04-27T08:41:05.455Z,11.20
2019-04-27T08:43:42.095Z,11.20
2019-04-27T08:46:18.660Z,11.30
2019-04-27T08:48:55.095Z,11.40
2019-04-27T08:51:33.715Z,11.50
2019-04-27T08:54:09.083Z,11.50
2019-04-27T08:56:49.447Z,11.60
2019-04-27T08:59:22.283Z,11.60
2019-04-27T09:01:56.552Z,11.70
2019-04-27T09:04:32.238Z,11.70
2019-04-27T09:07:21.950Z,11.80
2019-04-27T09:10:03.963Z,11.90
2019-04-27T09:13:10.458Z,11.90
2019-04-27T09:15:57.240Z,12.00
2019-04-27T09:18:35.573Z,12.10
2019-04-27T09:21:12.227Z,12.20
2019-04-27T09:23:48.882Z,12.20
2019-04-27T09:26:21.498Z,12.20
2019-04-27T09:29:00.607Z,12.30
2019-04-27T09:31:33.247Z,12.30
2019-04-27T09:34:12.761Z,12.30
2019-04-27T09:36:56.495Z,12.30
2019-04-27T09:39:32.876Z,12.40
2019-04-27T09:42:16.678Z,12.30
2019-04-27T09:44:50.286Z,12.40
2019-04-27T09:47:26.673Z,12.40
2019-04-27T09:49:59.906Z,12.50
2019-04-27T09:52:36.441Z,12.60
2019-04-27T09:55:09.886Z,12.50
2019-04-27T09:57:46.475Z,12.50
2019-04-27T10:00:19.609Z,12.50
2019-04-27T10:03:07.059Z,12.50
2019-04-27T10:05:43.399Z,12.50
2019-04-27T10:08:16.993Z,12.60
2019-04-27T10:10:53.281Z,12.60
2019-04-27T10:13:32.024Z,12.70
2019-04-27T10:16:17.461Z,12.80
2019-04-27T10:18:50.893Z,12.90
2019-04-27T10:21:23.065Z,13.00
2019-04-27T10:24:07.878Z,13.00
2019-04-27T10:26:45.594Z,13.10
2019-04-27T10:29:24.368Z,13.10
2019-04-27T10:32:01.519Z,13.20
2019-04-27T10:34:34.861Z,13.20
2019-04-27T10:37:11.025Z,13.20
2019-04-27T10:39:47.212Z,13.20
2019-04-27T10:42:23.372Z,13.10
2019-04-27T10:45:01.623Z,13.10
2019-04-27T10:47:36.050Z,13.20
2019-04-27T10:50:11.345Z,13.30
2019-04-27T10:52:53.416Z,13.30
2019-04-27T10:55:32.169Z,13.40
2019-04-27T10:58:04.838Z,13.30
2019-04-27T11:00:52.065Z,13.30
2019-04-27T11:03:53.560Z,13.30
2019-04-27T11:06:38.049Z,13.30
2019-04-27T11:09:16.334Z,13.30
2019-04-27T11:11:56.591Z,13.30
2019-04-27T11:14:40.427Z,13.40
2019-04-27T11:17:16.493Z,13.40
2019-04-27T11:19:58.011Z,13.40
2019-04-27T11:22:36.309Z,13.50
2019-04-27T11:25:09.676Z,13.60
2019-04-27T11:27:50.043Z,13.60
2019-04-27T11:30:37.147Z,13.70
2019-04-27T11:33:11.235Z,13.70
2019-04-27T11:35:56.016Z,13.70
2019-04-27T11:38:31.728Z,13.70
2019-04-27T11:41:07.593Z,13.70
2019-04-27T11:43:50.484Z,13.70
2019-04-27T11:46:23.564Z,13.70
2019-04-27T11:49:06.786Z,13.80
2019-04-27T11:51:46.866Z,13.90
2019-04-27T11:54:27.544Z,14.00
2019-04-27T11:57:20.386Z,14.10
2019-04-27T12:00:07.458Z,14.20
2019-04-27T12:02:45.715Z,14.30
2019-04-27T12:05:20.977Z,14.30
2019-04-27T12:07:55.918Z,14.30
2019-04-27T12:10:33.834Z,14.30
2019-04-27T12:13:15.847Z,14.30
2019-04-27T12:15:48.688Z,14.10
2019-04-27T12:18:21.975Z,14.10
2019-04-27T12:20:55.869Z,14.00
2019-04-27T12:23:47.504Z,13.90
2019-04-27T12:26:48.413Z,13.80
2019-04-27T12:29:57.557Z,13.70
2019-04-27T12:32:50.746Z,13.80
2019-04-27T12:35:25.859Z,13.70
2019-04-27T12:38:08.983Z,13.70
2019-04-27T12:40:46.586Z,13.70
2019-04-27T12:43:33.425Z,13.70
2019-04-27T12:46:16.542Z,13.70
2019-04-27T12:48:51.345Z,13.80
2019-04-27T12:51:26.852Z,13.80
2019-04-27T12:54:19.962Z,13.90
2019-04-27T12:57:22.603Z,14.10
2019-04-27T13:00:02.639Z,14.20
2019-04-27T13:02:55.598Z,14.20
2019-04-27T13:05:48.234Z,14.30
2019-04-27T13:08:27.400Z,14.30
2019-04-27T13:11:19.630Z,14.40
2019-04-27T13:14:00.610Z,14.40
2019-04-27T13:16:34.193Z,14.40
2019-04-27T13:19:17.447Z,14.40
2019-04-27T13:21:55.894Z,14.30
2019-04-27T13:24:35.782Z,14.40
2019-04-27T13:27:10.898Z,14.30
2019-04-27T13:30:09.277Z,14.20
2019-04-27T13:33:03.807Z,14.10
2019-04-27T13:35:38.036Z,13.90
2019-04-27T13:38:18.113Z,13.90
2019-04-27T13:41:09.465Z,13.90
2019-04-27T13:43:50.606Z,13.90
2019-04-27T13:46:49.296Z,13.90
2019-04-27T13:49:41.639Z,13.90
2019-04-27T13:52:30.030Z,14.00
2019-04-27T13:55:05.894Z,14.00
2019-04-27T13:57:50.086Z,14.00
2019-04-27T14:00:21.121Z,14.10
2019-04-27T14:02:57.143Z,14.10
2019-04-27T14:05:39.378Z,14.20
2019-04-27T14:08:30.722Z,14.20
2019-04-27T14:11:06.597Z,14.30
2019-04-27T14:13:41.430Z,14.50
2019-04-27T14:16:18.940Z,14.60
2019-04-27T14:18:59.447Z,14.70
2019-04-27T14:21:36.081Z,14.80
2019-04-27T14:24:27.240Z,14.90
2019-04-27T14:26:54.906Z,14.80
2019-04-27T14:29:39.441Z,14.90
2019-04-27T14:32:13.143Z,14.90
2019-04-27T14:34:50.379Z,14.70
2019-04-27T14:37:36.387Z,14.70
2019-04-27T14:40:15.593Z,14.60
2019-04-27T14:43:12.188Z,14.50
2019-04-27T14:45:48.619Z,14.40
2019-04-27T14:48:23.476Z,14.20
2019-04-27T14:50:59.126Z,14.00
2019-04-27T14:53:38.860Z,13.40
2019-04-27T14:56:28.852Z,13.00
2019-04-27T14:59:01.249Z,12.80
2019-04-27T15:01:37.504Z,12.50
2019-04-27T15:04:23.358Z,12.40
2019-04-27T15:07:08.431Z,12.40
2019-04-27T15:09:57.535Z,12.40
2019-04-27T15:12:32.723Z,12.40
2019-04-27T15:15:10.973Z,12.40
2019-04-27T15:17:46.369Z,12.30
2019-04-27T15:20:32.732Z,12.20
2019-04-27T15:23:11.531Z,12.20
2019-04-27T15:25:51.452Z,12.20
2019-04-27T15:28:32.080Z,12.30
2019-04-27T15:31:29.026Z,12.20
2019-04-27T15:34:41.871Z,12.20
2019-04-27T15:37:52.421Z,12.30
2019-04-27T15:40:47.822Z,12.30
2019-04-27T15:43:38.739Z,12.20
2019-04-27T15:46:16.100Z,12.10
2019-04-27T15:49:11.520Z,11.90
2019-04-27T15:51:45.983Z,11.80
2019-04-27T15:54:22.206Z,11.60
2019-04-27T15:57:05.826Z,11.60
2019-04-27T16:00:04.315Z,11.50
2019-04-27T16:02:44.555Z,11.40
2019-04-27T16:05:17.453Z,11.40
2019-04-27T16:08:28.672Z,11.40
2019-04-27T16:11:16.553Z,11.40
2019-04-27T16:13:52.104Z,11.50
2019-04-27T16:16:29.131Z,11.50
2019-04-27T16:19:18.400Z,11.50
2019-04-27T16:21:54.047Z,11.50
2019-04-27T16:24:23.926Z,11.40
2019-04-27T16:27:01.796Z,11.50
2019-04-27T16:29:39.387Z,11.50
2019-04-27T16:32:14.513Z,11.60
2019-04-27T16:34:55.513Z,11.60
2019-04-27T16:37:52.006Z,11.80
2019-04-27T16:40:26.724Z,11.90
2019-04-27T16:43:04.976Z,12.10
2019-04-27T16:45:40.300Z,12.20
2019-04-27T16:48:16.168Z,12.30
2019-04-27T16:51:10.745Z,12.40
2019-04-27T16:54:17.043Z,12.50
2019-04-27T16:56:53.366Z,12.70
2019-04-27T16:59:40.914Z,12.70
2019-04-27T17:02:03.178Z,12.70
2019-04-27T17:04:38.496Z,12.50
2019-04-27T17:07:11.261Z,12.40
2019-04-27T17:09:46.238Z,12.30
2019-04-27T17:12:18.711Z,12.30
2019-04-27T17:15:10.685Z,12.20
2019-04-27T17:17:52.318Z,12.20
2019-04-27T17:20:38.216Z,12.10
2019-04-27T17:23:38.766Z,12.10
2019-04-27T17:26:21.771Z,11.80
2019-04-27T17:29:11.013Z,11.60
2019-04-27T17:31:45.177Z,11.40
2019-04-27T17:34:25.173Z,11.10
2019-04-27T17:37:03.201Z,10.90
2019-04-27T17:39:40.871Z,10.80
2019-04-27T17:42:16.255Z,10.70
2019-04-27T17:44:53.008Z,10.60
2019-04-27T17:47:26.973Z,10.60
2019-04-27T17:50:06.962Z,10.50
2019-04-27T17:52:40.945Z,10.40
2019-04-27T17:55:24.323Z,10.40
2019-04-27T17:58:05.097Z,10.40
2019-04-27T18:00:42.906Z,10.40
2019-04-27T18:03:12.536Z,10.40
2019-04-27T18:05:49.355Z,10.30
2019-04-27T18:08:22.862Z,10.30
2019-04-27T18:11:00.194Z,10.30
2019-04-27T18:13:31.187Z,10.20
2019-04-27T18:16:09.145Z,10.20
2019-04-27T18:18:49.020Z,10.20
2019-04-27T18:21:33.321Z,10.10
2019-04-27T18:24:11.166Z,10.20
2019-04-27T18:26:56.475Z,10.30
2019-04-27T18:29:48.727Z,10.20
2019-04-27T18:32:29.321Z,10.10
2019-04-27T18:35:03.481Z,10.10
2019-04-27T18:37:36.764Z,10.00
2019-04-27T18:40:09.314Z,10.00
2019-04-27T18:42:48.440Z,10.00
2019-04-27T18:45:28.357Z,9.90
2019-04-27T18:48:13.531Z,9.90
2019-04-27T18:51:02.926Z,9.90
2019-04-27T18:53:42.865Z,10.00
2019-04-27T18:56:21.215Z,9.90
2019-04-27T18:58:55.539Z,9.90
2019-04-27T19:01:32.169Z,9.80
2019-04-27T19:04:08.685Z,9.80
2019-04-27T19:06:44.334Z,9.80
2019-04-27T19:09:19.696Z,9.80
2019-04-27T19:11:56.796Z,9.80
2019-04-27T19:14:30.433Z,9.80
2019-04-27T19:17:06.257Z,9.70
2019-04-27T19:19:37.692Z,9.70
2019-04-27T19:22:13.380Z,9.70
2019-04-27T19:24:46.631Z,9.60
2019-04-27T19:27:39.446Z,9.60
2019-04-27T19:30:43.726Z,9.60
2019-04-27T19:33:18.116Z,9.60
2019-04-27T19:35:59.682Z,9.60
2019-04-27T19:38:31.578Z,9.50
2019-04-27T19:41:13.804Z,9.50
2019-04-27T19:43:45.470Z,9.40
2019-04-27T19:46:20.147Z,9.40
2019-04-27T19:48:53.082Z,9.40
2019-04-27T19:51:28.345Z,9.40
2019-04-27T19:54:05.119Z,9.40
2019-04-27T19:56:38.241Z,9.40
2019-04-27T19:59:19.787Z,9.40
2019-04-27T20:01:58.423Z,9.40
2019-04-27T20:04:35.659Z,9.40
2019-04-27T20:07:10.573Z,9.50
2019-04-27T20:09:55.670Z,9.50
2019-04-27T20:12:33.875Z,9.40
2019-04-27T20:15:06.826Z,9.40
2019-04-27T20:17:42.841Z,9.40
2019-04-27T20:20:17.410Z,9.50
2019-04-27T20:22:50.671Z,9.50
2019-04-27T20:25:31.298Z,9.40
2019-04-27T20:28:03.971Z,9.40
2019-04-27T20:30:51.883Z,9.40
2019-04-27T20:33:23.571Z,9.40
2019-04-27T20:35:56.426Z,9.30
2019-04-27T20:38:31.761Z,9.30
2019-04-27T20:41:03.829Z,9.40
2019-04-27T20:43:41.928Z,9.40
2019-04-27T20:46:24.505Z,9.40
2019-04-27T20:48:56.541Z,9.30
2019-04-27T20:51:50.076Z,9.30
2019-04-27T20:54:22.867Z,9.30
2019-04-27T20:57:06.997Z,9.30
2019-04-27T20:59:41.716Z,9.30
2019-04-27T21:02:31.907Z,9.20
2019-04-27T21:05:13.221Z,9.20
2019-04-27T21:07:53.066Z,9.20
2019-04-27T21:10:27.465Z,9.20
2019-04-27T21:13:01.828Z,9.20
2019-04-27T21:15:35.023Z,9.20
2019-04-27T21:18:09.036Z,9.20
2019-04-27T21:20:45.290Z,9.10
2019-04-27T21:23:22.321Z,9.10
2019-04-27T21:26:02.134Z,9.10
2019-04-27T21:28:43.008Z,9.10
2019-04-27T21:31:15.604Z,9.00
2019-04-27T21:33:48.171Z,9.00
2019-04-27T21:36:24.565Z,9.10
2019-04-27T21:39:06.987Z,9.20
2019-04-27T21:41:47.495Z,9.40
2019-04-27T21:44:35.619Z,9.30
2019-04-27T21:47:11.110Z,9.30
2019-04-27T21:49:48.508Z,9.30
2019-04-27T21:52:31.593Z,9.30
2019-04-27T21:55:14.965Z,9.30
2019-04-27T21:57:51.973Z,9.30
2019-04-27T22:01:06.761Z,9.30
2019-04-27T22:03:44.466Z,9.30
2019-04-27T22:06:23.095Z,9.30
2019-04-27T22:09:01.564Z,9.30
2019-04-27T22:11:40.954Z,9.30
2019-04-27T22:14:19.012Z,9.30
2019-04-27T22:16:51.882Z,9.30
2019-04-27T22:19:28.246Z,9.30
2019-04-27T22:22:03.724Z,9.30
2019-04-27T22:24:42.779Z,9.30
2019-04-27T22:27:14.148Z,9.40
2019-04-27T22:29:52.752Z,9.40
2019-04-27T22:32:25.758Z,9.40
2019-04-27T22:34:58.134Z,9.40
2019-04-27T22:37:35.503Z,9.40
2019-04-27T22:40:24.584Z,9.40
2019-04-27T22:43:19.096Z,9.50
2019-04-27T22:45:56.958Z,9.50
2019-04-27T22:48:32.853Z,9.40
2019-04-27T22:51:12.826Z,9.30
2019-04-27T22:53:48.025Z,9.30
2019-04-27T22:56:22.188Z,9.30
2019-04-27T22:59:21.507Z,9.30
2019-04-27T23:02:16.730Z,9.30
2019-04-27T23:04:51.594Z,9.30
2019-04-27T23:07:28.226Z,9.30
2019-04-27T23:10:04.177Z,9.30
2019-04-27T23:12:37.038Z,9.30
2019-04-27T23:15:14.129Z,9.30
2019-04-27T23:17:59.212Z,9.30
2019-04-27T23:20:42.962Z,9.30
2019-04-27T23:23:23.177Z,9.30
2019-04-27T23:25:58.529Z,9.30
2019-04-27T23:28:34.649Z,9.20
2019-04-27T23:31:16.729Z,9.10
2019-04-27T23:33:53.534Z,9.10
2019-04-27T23:36:28.609Z,9.10
2019-04-27T23:39:05.781Z,9.10
2019-04-27T23:41:43.222Z,9.00
2019-04-27T23:44:25.112Z,9.00
2019-04-27T23:47:01.299Z,9.00
2019-04-27T23:49:34.674Z,9.20
2019-04-27T23:52:20.959Z,9.30
2019-04-27T23:54:52.856Z,9.30
2019-04-27T23:57:24.203Z,9.30
2019-04-27T23:59:59.049Z,9.20
